createdAt,value
2019-06-01T00:00:55.779Z,15.00
2019-06-01T00:06:51.553Z,16.23
2019-06-01T00:09:26.760Z,19.37
2019-06-01T00:18:24.015Z,11.87
2019-06-01T00:21:01.355Z,12.00
2019-06-01T00:26:52.097Z,10.93
2019-06-01T00:32:55.024Z,12.93
2019-06-01T00:36:10.838Z,11.57
2019-06-01T00:38:45.734Z,15.07
2019-06-01T00:41:16.096Z,15.77
2019-06-01T00:43:46.154Z,15.80
2019-06-01T00:46:18.470Z,14.97
2019-06-01T00:48:55.986Z,17.00
2019-06-01T00:51:26.300Z,16.53
2019-06-01T00:54:01.406Z,17.63
2019-06-01T00:56:35.971Z,16.60
2019-06-01T00:59:10.130Z,20.07
2019-06-01T01:01:40.593Z,20.00
2019-06-01T01:04:19.989Z,19.93
2019-06-01T01:06:54.892Z,18.37
2019-06-01T01:09:33.255Z,17.97
2019-06-01T01:12:05.913Z,21.90
2019-06-01T01:14:38.218Z,17.90
2019-06-01T01:17:08.039Z,20.10
2019-06-01T01:22:46.098Z,18.73
2019-06-01T01:25:32.898Z,17.57
2019-06-01T01:28:17.582Z,21.40
2019-06-01T01:31:12.365Z,19.07
2019-06-01T01:33:38.592Z,18.97
2019-06-01T01:36:19.749Z,17.80
2019-06-01T01:39:04.433Z,17.33
2019-06-01T01:41:41.469Z,17.70
2019-06-01T01:44:16.683Z,18.97
2019-06-01T01:46:58.833Z,18.13
2019-06-01T01:49:43.732Z,19.40
2019-06-01T01:52:27.735Z,17.93
2019-06-01T01:55:08.090Z,18.00
2019-06-01T01:57:47.814Z,17.93
2019-06-01T02:00:27.227Z,18.57
2019-06-01T02:06:00.708Z,19.33
2019-06-01T02:08:35.150Z,20.10
2019-06-01T02:11:11.484Z,17.93
2019-06-01T02:13:57.709Z,19.50
2019-06-01T02:16:36.338Z,19.83
2019-06-01T02:19:12.754Z,21.53
2019-06-01T02:21:44.797Z,21.17
2019-06-01T02:24:14.609Z,20.90
2019-06-01T02:26:49.074Z,19.93
2019-06-01T02:29:28.662Z,21.30
2019-06-01T02:32:04.712Z,19.83
2019-06-01T02:34:35.370Z,20.83
2019-06-01T02:37:08.640Z,25.33
2019-06-01T02:39:41.634Z,20.93
2019-06-01T02:42:22.373Z,21.83
2019-06-01T02:45:01.792Z,20.93
2019-06-01T02:47:42.297Z,21.30
2019-06-01T02:50:20.118Z,22.13
2019-06-01T02:55:57.992Z,25.07
2019-06-01T03:01:39.389Z,22.30
2019-06-01T03:04:12.111Z,23.27
2019-06-01T03:06:46.222Z,22.97
2019-06-01T03:09:22.215Z,23.03
2019-06-01T03:11:54.438Z,21.67
2019-06-01T03:14:29.580Z,23.07
2019-06-01T03:17:01.896Z,22.63
2019-06-01T03:19:39.614Z,22.13
2019-06-01T03:22:18.018Z,24.33
2019-06-01T03:25:14.970Z,23.33
2019-06-01T03:27:50.483Z,21.57
2019-06-01T03:30:46.244Z,22.40
2019-06-01T03:33:22.442Z,20.97
2019-06-01T03:35:53.959Z,21.67
2019-06-01T03:38:25.853Z,22.00
2019-06-01T03:40:57.812Z,21.43
2019-06-01T03:43:28.417Z,22.13
2019-06-01T03:46:00.566Z,20.87
2019-06-01T03:48:30.591Z,20.20
2019-06-01T03:51:28.702Z,19.03
2019-06-01T03:54:00.872Z,19.63
2019-06-01T03:56:32.666Z,19.00
2019-06-01T03:59:03.085Z,18.33
2019-06-01T04:01:34.579Z,17.30
2019-06-01T04:04:07.401Z,17.77
2019-06-01T04:06:37.738Z,17.90
2019-06-01T04:09:10.274Z,17.03
2019-06-01T04:11:40.892Z,15.97
2019-06-01T04:14:11.896Z,15.27
2019-06-01T04:16:44.140Z,14.70
2019-06-01T04:19:17.838Z,13.87
2019-06-01T04:22:10.148Z,13.87
2019-06-01T04:24:42.833Z,12.13
2019-06-01T04:27:16.369Z,14.13
2019-06-01T04:29:46.536Z,11.77
2019-06-01T04:32:16.443Z,12.03
2019-06-01T04:34:50.144Z,11.27
2019-06-01T04:37:23.946Z,12.80
2019-06-01T04:40:05.008Z,16.87
2019-06-01T04:42:46.496Z,10.60
2019-06-01T04:45:18.431Z,10.63
2019-06-01T04:47:51.522Z,10.60
2019-06-01T04:50:22.888Z,15.17
2019-06-01T04:52:55.460Z,10.70
2019-06-01T04:55:34.087Z,12.17
2019-06-01T04:58:16.306Z,11.03
2019-06-01T05:00:52.794Z,12.00
2019-06-01T05:03:43.041Z,10.77
2019-06-01T05:06:22.010Z,10.47
2019-06-01T05:08:52.069Z,10.90
2019-06-01T05:11:27.632Z,10.00
2019-06-01T05:14:16.536Z,10.67
2019-06-01T05:16:48.887Z,9.03
2019-06-01T05:19:26.647Z,9.87
2019-06-01T05:25:02.737Z,8.57
2019-06-01T05:30:34.952Z,9.53
2019-06-01T05:33:30.966Z,8.45
2019-06-01T05:35:55.723Z,8.03
2019-06-01T05:38:28.295Z,9.30
2019-06-01T05:41:04.081Z,8.55
2019-06-01T05:43:38.823Z,8.85
2019-06-01T05:46:22.288Z,9.70
2019-06-01T05:49:22.716Z,9.28
2019-06-01T05:51:57.387Z,7.87
2019-06-01T05:54:32.127Z,8.65
2019-06-01T05:57:10.531Z,8.43
2019-06-01T06:00:00.670Z,8.60
2019-06-01T06:02:34.289Z,8.33
2019-06-01T06:05:14.641Z,11.22
2019-06-01T06:07:53.891Z,6.80
2019-06-01T06:10:49.082Z,7.00
2019-06-01T06:16:41.657Z,8.08
2019-06-01T06:22:26.826Z,7.58
2019-06-01T06:31:19.281Z,7.58
2019-06-01T06:34:05.193Z,7.35
2019-06-01T06:36:45.905Z,7.83
2019-06-01T06:42:55.121Z,9.53
2019-06-01T06:45:57.174Z,8.03
2019-06-01T06:49:25.360Z,8.93
2019-06-01T06:58:33.820Z,9.40
2019-06-01T07:01:18.836Z,7.12
2019-06-01T07:16:11.685Z,9.48
2019-06-01T07:22:03.969Z,7.28
2019-06-01T07:25:16.106Z,9.00
2019-06-01T07:31:06.886Z,8.15
2019-06-01T07:36:39.966Z,7.87
2019-06-01T07:39:13.423Z,8.13
2019-06-01T07:41:49.136Z,7.65
2019-06-01T07:44:33.266Z,7.97
2019-06-01T07:47:02.987Z,8.93
2019-06-01T07:49:36.409Z,8.33
2019-06-01T07:52:13.169Z,8.10
2019-06-01T07:54:46.287Z,9.55
2019-06-01T07:57:16.072Z,7.70
2019-06-01T07:59:47.181Z,6.25
2019-06-01T08:11:59.555Z,6.85
2019-06-01T08:17:54.386Z,5.35
2019-06-01T08:20:42.268Z,5.92
2019-06-01T08:32:15.402Z,5.37
2019-06-01T08:34:45.059Z,7.10
2019-06-01T08:37:14.775Z,5.60
2019-06-01T08:39:44.604Z,5.15
2019-06-01T08:42:14.291Z,5.47
2019-06-01T08:44:43.981Z,4.75
2019-06-01T08:47:14.925Z,6.05
2019-06-01T08:49:44.487Z,4.78
2019-06-01T08:52:14.398Z,4.45
2019-06-01T08:54:44.275Z,4.83
2019-06-01T08:57:13.967Z,4.47
2019-06-01T08:59:43.653Z,4.12
2019-06-01T09:02:13.305Z,5.08
2019-06-01T09:04:43.206Z,4.35
2019-06-01T09:07:13.504Z,3.75
2019-06-01T09:09:43.572Z,6.33
2019-06-01T09:12:13.228Z,3.60
2019-06-01T09:14:43.008Z,4.45
2019-06-01T09:17:12.571Z,4.12
2019-06-01T09:19:42.403Z,4.37
2019-06-01T09:22:12.125Z,4.85
2019-06-01T09:24:41.838Z,5.20
2019-06-01T09:27:11.465Z,4.10
2019-06-01T09:29:44.554Z,4.85
2019-06-01T09:32:12.691Z,3.90
2019-06-01T09:34:42.588Z,5.97
2019-06-01T09:37:12.284Z,4.70
2019-06-01T09:39:42.185Z,4.60
2019-06-01T09:42:11.800Z,4.75
2019-06-01T09:44:41.419Z,5.75
2019-06-01T09:47:11.690Z,4.40
2019-06-01T09:49:41.324Z,4.03
2019-06-01T09:52:12.505Z,4.95
2019-06-01T09:54:42.550Z,7.03
2019-06-01T09:57:12.416Z,5.22
2019-06-01T09:59:41.990Z,4.78
2019-06-01T10:02:11.801Z,4.75
2019-06-01T10:04:41.666Z,4.70
2019-06-01T10:07:12.793Z,4.80
2019-06-01T10:09:42.545Z,5.62
2019-06-01T10:12:13.575Z,4.62
2019-06-01T10:14:43.147Z,7.95
2019-06-01T10:17:13.063Z,4.17
2019-06-01T10:20:02.114Z,4.37
2019-06-01T10:22:33.107Z,6.30
2019-06-01T10:25:03.113Z,4.33
2019-06-01T10:27:38.718Z,4.47
2019-06-01T10:30:11.053Z,4.87
2019-06-01T10:32:42.136Z,4.75
2019-06-01T10:35:13.594Z,4.78
2019-06-01T10:37:43.424Z,4.10
2019-06-01T10:40:14.040Z,5.78
2019-06-01T10:42:43.720Z,4.37
2019-06-01T10:45:13.972Z,5.08
2019-06-01T10:47:44.966Z,4.30
2019-06-01T10:50:17.580Z,6.20
2019-06-01T10:52:47.623Z,4.30
2019-06-01T10:55:17.548Z,5.85
2019-06-01T10:57:47.463Z,5.62
2019-06-01T11:00:17.551Z,6.67
2019-06-01T11:02:47.366Z,3.58
2019-06-01T11:05:18.638Z,4.40
2019-06-01T11:07:48.538Z,4.90
2019-06-01T11:10:18.363Z,3.40
2019-06-01T11:12:49.055Z,4.92
2019-06-01T11:15:19.073Z,4.03
2019-06-01T11:17:48.941Z,4.15
2019-06-01T11:20:20.669Z,5.53
2019-06-01T11:22:50.435Z,6.03
2019-06-01T11:25:20.127Z,4.70
2019-06-01T11:27:49.950Z,5.10
2019-06-01T11:30:19.867Z,6.07
2019-06-01T11:32:49.570Z,4.40
2019-06-01T11:35:23.697Z,5.73
2019-06-01T11:37:53.453Z,7.00
2019-06-01T11:40:26.196Z,5.83
2019-06-01T11:42:55.855Z,4.63
2019-06-01T11:45:25.550Z,5.27
2019-06-01T11:47:55.395Z,5.77
2019-06-01T11:50:25.718Z,4.80
2019-06-01T11:52:55.622Z,5.23
2019-06-01T11:55:25.369Z,6.30
2019-06-01T11:57:55.294Z,5.50
2019-06-01T12:00:26.522Z,3.93
2019-06-01T12:02:56.380Z,6.10
2019-06-01T12:05:30.468Z,4.30
2019-06-01T12:08:03.563Z,5.83
2019-06-01T12:10:35.027Z,5.23
2019-06-01T12:13:05.684Z,3.57
2019-06-01T12:15:38.499Z,3.40
2019-06-01T12:18:12.140Z,3.73
2019-06-01T12:20:42.781Z,5.17
2019-06-01T12:23:12.977Z,5.20
2019-06-01T12:25:44.377Z,5.07
2019-06-01T12:28:16.817Z,5.50
2019-06-01T12:30:48.237Z,5.47
2019-06-01T12:33:18.443Z,5.50
2019-06-01T12:35:48.244Z,4.23
2019-06-01T12:38:18.013Z,4.07
2019-06-01T12:40:47.810Z,3.77
2019-06-01T12:43:18.063Z,3.00
2019-06-01T12:45:47.922Z,3.07
2019-06-01T12:48:18.377Z,3.23
2019-06-01T12:50:50.895Z,3.57
2019-06-01T12:53:20.733Z,3.37
2019-06-01T12:55:50.373Z,3.37
2019-06-01T12:58:20.151Z,5.43
2019-06-01T13:00:49.937Z,4.03
2019-06-01T13:03:22.403Z,5.53
2019-06-01T13:05:52.246Z,4.90
2019-06-01T13:08:24.928Z,5.50
2019-06-01T13:10:57.522Z,4.43
2019-06-01T13:13:28.565Z,5.83
2019-06-01T13:15:59.774Z,5.30
2019-06-01T13:18:30.063Z,3.53
2019-06-01T13:21:00.753Z,4.27
2019-06-01T13:23:35.141Z,5.60
2019-06-01T13:26:09.609Z,5.80
2019-06-01T13:28:39.403Z,3.50
2019-06-01T13:31:09.132Z,3.63
2019-06-01T13:33:40.251Z,3.53
2019-06-01T13:36:10.635Z,3.23
2019-06-01T13:38:42.874Z,3.50
2019-06-01T13:41:13.108Z,5.60
2019-06-01T13:43:43.679Z,5.07
2019-06-01T13:46:15.134Z,4.10
2019-06-01T13:48:45.538Z,5.23
2019-06-01T13:51:15.548Z,3.60
2019-06-01T13:54:25.579Z,2.60
2019-06-01T14:00:33.399Z,2.80
2019-06-01T14:27:42.474Z,3.33
2019-06-01T14:54:49.599Z,2.87
2019-06-01T15:07:17.306Z,3.63
2019-06-01T15:09:56.427Z,2.33
2019-06-01T15:12:32.668Z,2.77
2019-06-01T15:18:03.924Z,3.77
2019-06-01T15:24:06.498Z,2.73
2019-06-01T15:26:38.986Z,5.90
2019-06-01T15:35:57.838Z,3.10
2019-06-01T15:38:42.433Z,3.70
2019-06-01T15:41:27.138Z,3.60
2019-06-01T15:44:08.034Z,4.53
2019-06-01T15:50:09.066Z,4.30
2019-06-01T15:58:55.410Z,4.80
2019-06-01T16:04:59.643Z,3.80
2019-06-01T16:07:43.443Z,7.10
2019-06-01T16:10:29.983Z,3.37
2019-06-01T16:13:21.172Z,4.30
2019-06-01T16:30:05.917Z,11.80
